createdAt,value
2018-02-14T00:00:57.859Z,58.74
2018-02-14T00:03:25.617Z,58.77
2018-02-14T00:05:53.212Z,58.78
2018-02-14T00:08:20.839Z,58.92
2018-02-14T00:10:49.354Z,59.04
2018-02-14T00:13:17.109Z,59.16
2018-02-14T00:15:49.617Z,59.20
2018-02-14T00:18:17.119Z,59.24
2018-02-14T00:20:44.635Z,59.26
2018-02-14T00:23:12.337Z,59.19
2018-02-14T00:25:39.930Z,59.44
2018-02-14T00:28:07.438Z,59.36
2018-02-14T00:30:35.005Z,59.23
2018-02-14T00:33:02.478Z,59.24
2018-02-14T00:35:29.961Z,59.32
2018-02-14T00:37:57.677Z,59.35
2018-02-14T00:40:25.309Z,59.44
2018-02-14T00:42:55.779Z,59.48
2018-02-14T00:45:23.345Z,59.68
2018-02-14T00:47:51.007Z,59.62
2018-02-14T00:50:18.710Z,59.64
2018-02-14T00:52:46.228Z,59.86
2018-02-14T00:55:13.767Z,60.27
2018-02-14T00:57:41.208Z,60.28
2018-02-14T01:00:09.023Z,60.25
2018-02-14T01:02:36.526Z,60.05
2018-02-14T01:05:04.007Z,60.21
2018-02-14T01:07:32.199Z,60.12
2018-02-14T01:09:59.696Z,60.34
2018-02-14T01:12:27.239Z,60.19
2018-02-14T01:14:54.706Z,60.33
2018-02-14T01:17:22.230Z,60.34
2018-02-14T01:19:55.413Z,60.30
2018-02-14T01:22:22.909Z,60.48
2018-02-14T01:24:50.397Z,60.59
2018-02-14T01:27:17.851Z,60.63
2018-02-14T01:29:45.311Z,61.06
2018-02-14T01:32:12.768Z,61.07
2018-02-14T01:34:40.347Z,61.32
2018-02-14T01:37:07.824Z,61.23
2018-02-14T01:39:35.362Z,61.26
2018-02-14T01:42:02.882Z,61.26
2018-02-14T01:44:30.361Z,61.27
2018-02-14T01:46:57.855Z,61.32
2018-02-14T01:49:25.364Z,61.22
2018-02-14T01:51:52.805Z,61.27
2018-02-14T01:54:20.299Z,61.36
2018-02-14T01:56:47.796Z,61.58
2018-02-14T01:59:15.234Z,61.37
2018-02-14T02:01:42.747Z,61.48
2018-02-14T02:04:10.295Z,61.39
2018-02-14T02:06:37.778Z,61.41
2018-02-14T02:09:05.270Z,61.51
2018-02-14T02:11:32.767Z,61.48
2018-02-14T02:14:00.291Z,61.58
2018-02-14T02:16:27.762Z,61.74
2018-02-14T02:18:55.251Z,61.57
2018-02-14T02:21:22.705Z,61.79
2018-02-14T02:23:50.163Z,61.94
2018-02-14T02:26:18.477Z,62.02
2018-02-14T02:28:46.047Z,62.25
2018-02-14T02:31:13.527Z,62.25
2018-02-14T02:33:41.873Z,62.38
2018-02-14T02:36:10.272Z,62.38
2018-02-14T02:38:37.736Z,62.40
2018-02-14T02:41:05.211Z,62.40
2018-02-14T02:43:32.684Z,63.05
2018-02-14T02:46:00.476Z,62.97
2018-02-14T02:48:27.933Z,63.07
2018-02-14T02:50:55.464Z,62.90
2018-02-14T02:53:23.032Z,63.00
2018-02-14T02:55:55.730Z,62.80
2018-02-14T02:58:23.166Z,62.84
2018-02-14T03:00:50.654Z,62.83
2018-02-14T03:03:18.122Z,62.97
2018-02-14T03:05:45.608Z,63.02
2018-02-14T03:08:13.063Z,62.97
2018-02-14T03:10:41.436Z,63.29
2018-02-14T03:13:08.887Z,63.54
2018-02-14T03:15:36.350Z,63.67
2018-02-14T03:18:03.910Z,63.52
2018-02-14T03:20:31.372Z,63.45
2018-02-14T03:22:58.856Z,63.56
2018-02-14T03:25:26.320Z,63.58
2018-02-14T03:27:53.768Z,63.64
2018-02-14T03:30:21.223Z,63.54
2018-02-14T03:32:48.662Z,63.78
2018-02-14T03:35:16.358Z,63.84
2018-02-14T03:37:43.792Z,63.69
2018-02-14T03:40:11.222Z,63.77
2018-02-14T03:42:38.679Z,63.64
2018-02-14T03:45:06.154Z,63.73
2018-02-14T03:47:33.576Z,63.86
2018-02-14T03:50:01.050Z,63.80
2018-02-14T03:52:28.532Z,64.17
2018-02-14T03:54:55.962Z,64.28
2018-02-14T03:57:23.474Z,64.28
2018-02-14T03:59:51.016Z,64.37
2018-02-14T04:02:18.490Z,64.59
2018-02-14T04:04:45.970Z,64.83
2018-02-14T04:07:13.438Z,65.17
2018-02-14T04:09:40.928Z,65.21
2018-02-14T04:12:08.366Z,65.19
2018-02-14T04:14:35.901Z,65.36
2018-02-14T04:17:03.396Z,65.66
2018-02-14T04:19:30.870Z,65.37
2018-02-14T04:21:58.390Z,65.25
2018-02-14T04:24:25.930Z,65.29
2018-02-14T04:26:54.176Z,65.40
2018-02-14T04:29:21.874Z,65.50
2018-02-14T04:31:49.334Z,65.82
2018-02-14T04:34:16.779Z,65.70
2018-02-14T04:36:44.360Z,65.46
2018-02-14T04:39:11.816Z,65.42
2018-02-14T04:41:39.306Z,65.51
2018-02-14T04:44:06.746Z,65.42
2018-02-14T04:46:34.462Z,65.63
2018-02-14T04:49:01.920Z,65.78
2018-02-14T04:51:29.391Z,65.93
2018-02-14T04:53:56.860Z,65.92
2018-02-14T04:56:24.437Z,65.86
2018-02-14T04:58:51.864Z,65.83
2018-02-14T05:01:19.350Z,65.88
2018-02-14T05:03:46.820Z,66.02
2018-02-14T05:06:14.306Z,66.16
2018-02-14T05:08:41.790Z,66.14
2018-02-14T05:11:09.452Z,66.36
2018-02-14T05:13:36.912Z,66.66
2018-02-14T05:16:04.437Z,66.86
2018-02-14T05:18:31.990Z,66.85
2018-02-14T05:20:59.496Z,67.13
2018-02-14T05:23:26.991Z,67.02
2018-02-14T05:25:54.600Z,66.81
2018-02-14T05:28:22.064Z,66.63
2018-02-14T05:30:52.608Z,66.62
2018-02-14T05:33:20.298Z,66.75
2018-02-14T05:35:47.764Z,66.95
2018-02-14T05:38:15.300Z,67.02
2018-02-14T05:40:43.887Z,67.35
2018-02-14T05:43:15.200Z,67.32
2018-02-14T05:45:44.998Z,67.35
2018-02-14T05:48:13.651Z,67.62
2018-02-14T05:50:41.270Z,67.67
2018-02-14T05:53:08.738Z,68.03
2018-02-14T05:55:36.256Z,67.98
2018-02-14T05:58:03.775Z,68.15
2018-02-14T06:00:31.228Z,68.45
2018-02-14T06:02:58.804Z,68.50
2018-02-14T06:05:26.301Z,68.61
2018-02-14T06:07:53.870Z,69.05
2018-02-14T06:10:21.364Z,69.30
2018-02-14T06:12:48.892Z,69.89
2018-02-14T06:15:16.394Z,70.31
2018-02-14T06:17:43.892Z,70.24
2018-02-14T06:20:11.353Z,70.33
2018-02-14T06:22:38.810Z,70.65
2018-02-14T06:25:06.287Z,70.95
2018-02-14T06:27:34.628Z,71.28
2018-02-14T06:30:02.140Z,71.47
2018-02-14T06:32:29.643Z,71.57
2018-02-14T06:34:57.204Z,71.67
2018-02-14T06:37:24.755Z,71.71
2018-02-14T06:39:52.341Z,71.75
2018-02-14T06:42:19.804Z,71.80
2018-02-14T06:44:47.267Z,71.69
2018-02-14T06:47:14.834Z,71.86
2018-02-14T06:49:42.285Z,72.00
2018-02-14T06:52:09.951Z,72.21
2018-02-14T06:54:37.467Z,72.12
2018-02-14T06:57:04.951Z,72.17
2018-02-14T06:59:32.507Z,71.81
2018-02-14T07:02:00.023Z,71.61
2018-02-14T07:04:27.520Z,70.88
2018-02-14T07:06:55.014Z,71.07
2018-02-14T07:09:22.597Z,70.86
2018-02-14T07:11:50.156Z,71.02
2018-02-14T07:14:17.657Z,70.69
2018-02-14T07:16:45.245Z,70.49
2018-02-14T07:19:12.932Z,70.24
2018-02-14T07:21:40.541Z,70.13
2018-02-14T07:24:08.099Z,69.87
2018-02-14T07:26:35.657Z,69.40
2018-02-14T07:29:04.051Z,69.07
2018-02-14T07:31:32.577Z,68.83
2018-02-14T07:34:00.179Z,68.80
2018-02-14T07:36:28.950Z,68.89
2018-02-14T07:38:56.408Z,68.57
2018-02-14T07:41:23.929Z,68.23
2018-02-14T07:43:51.373Z,67.87
2018-02-14T07:46:18.822Z,67.55
2018-02-14T07:48:46.282Z,67.66
2018-02-14T07:51:13.881Z,67.59
2018-02-14T07:53:41.391Z,68.08
2018-02-14T07:56:09.012Z,67.87
2018-02-14T07:58:36.553Z,67.79
2018-02-14T08:01:04.047Z,67.61
2018-02-14T08:03:31.626Z,67.35
2018-02-14T08:05:59.125Z,66.18
2018-02-14T08:08:26.633Z,65.63
2018-02-14T08:10:54.713Z,65.57
2018-02-14T08:13:22.177Z,65.69
2018-02-14T08:15:49.649Z,65.54
2018-02-14T08:18:17.135Z,65.42
2018-02-14T08:20:44.576Z,65.19
2018-02-14T08:23:12.215Z,64.56
2018-02-14T08:25:39.719Z,63.93
2018-02-14T08:28:07.244Z,63.11
2018-02-14T08:30:34.773Z,62.49
2018-02-14T08:33:02.290Z,61.45
2018-02-14T08:35:30.391Z,61.71
2018-02-14T08:37:57.952Z,62.52
2018-02-14T08:40:25.707Z,63.51
2018-02-14T08:42:53.404Z,64.21
2018-02-14T08:45:22.104Z,64.47
2018-02-14T08:47:49.857Z,65.32
2018-02-14T08:50:17.621Z,65.32
2018-02-14T08:52:45.153Z,65.19
2018-02-14T08:55:12.771Z,64.91
2018-02-14T08:57:40.275Z,65.37
2018-02-14T09:00:07.751Z,65.74
2018-02-14T09:02:35.259Z,63.62
2018-02-14T09:05:02.915Z,62.37
2018-02-14T09:07:31.147Z,62.42
2018-02-14T09:09:58.795Z,62.54
2018-02-14T09:12:26.569Z,62.65
2018-02-14T09:14:54.182Z,63.06
2018-02-14T09:17:21.849Z,63.20
2018-02-14T09:19:49.506Z,62.83
2018-02-14T09:22:17.010Z,62.90
2018-02-14T09:24:44.813Z,62.67
2018-02-14T09:27:12.432Z,62.65
2018-02-14T09:29:39.978Z,62.86
2018-02-14T09:32:07.595Z,63.00
2018-02-14T09:34:35.728Z,62.77
2018-02-14T09:37:03.283Z,62.28
2018-02-14T09:39:30.848Z,62.16
2018-02-14T09:41:58.374Z,62.07
2018-02-14T09:44:25.876Z,62.27
2018-02-14T09:46:53.452Z,62.20
2018-02-14T09:49:21.024Z,62.06
2018-02-14T09:51:48.553Z,61.93
2018-02-14T09:54:16.150Z,61.71
2018-02-14T09:56:43.633Z,61.98
2018-02-14T09:59:11.114Z,61.33
2018-02-14T10:01:38.609Z,60.78
2018-02-14T10:04:06.282Z,59.69
2018-02-14T10:06:33.806Z,56.27
2018-02-14T10:09:01.301Z,50.64
2018-02-14T10:11:28.837Z,44.96
2018-02-14T10:13:56.369Z,41.08
2018-02-14T10:16:23.877Z,37.85
2018-02-14T10:18:51.544Z,35.56
2018-02-14T10:21:19.042Z,33.26
2018-02-14T10:23:46.575Z,31.37
2018-02-14T10:26:14.071Z,31.03
2018-02-14T10:28:41.542Z,30.54
2018-02-14T10:31:09.063Z,30.50
2018-02-14T10:33:38.010Z,30.33
2018-02-14T10:36:05.540Z,30.75
2018-02-14T10:38:33.164Z,30.28
2018-02-14T10:41:00.682Z,30.84
2018-02-14T10:43:28.188Z,30.88
2018-02-14T10:45:55.666Z,31.67
2018-02-14T10:48:23.126Z,30.97
2018-02-14T10:50:50.769Z,30.55
2018-02-14T10:53:18.335Z,30.28
2018-02-14T10:55:45.796Z,30.88
2018-02-14T10:58:13.264Z,31.13
2018-02-14T11:00:46.316Z,32.59
2018-02-14T11:06:15.763Z,31.67
2018-02-14T11:08:43.368Z,31.32
2018-02-14T11:11:11.194Z,31.80
2018-02-14T11:13:38.744Z,31.79
2018-02-14T11:16:06.670Z,31.52
2018-02-14T11:18:34.185Z,31.95
2018-02-14T11:21:01.727Z,30.88
2018-02-14T11:23:29.281Z,31.44
2018-02-14T11:25:56.879Z,31.60
2018-02-14T11:28:24.818Z,31.71
2018-02-14T11:30:52.330Z,32.53
2018-02-14T11:33:19.852Z,33.41
2018-02-14T11:35:47.320Z,34.54
2018-02-14T11:38:14.882Z,34.19
2018-02-14T11:40:42.748Z,34.99
2018-02-14T11:43:10.410Z,34.18
2018-02-14T11:45:38.352Z,35.01
2018-02-14T11:48:06.131Z,35.00
2018-02-14T11:50:33.812Z,34.44
2018-02-14T11:53:01.421Z,33.34
2018-02-14T11:55:29.179Z,32.67
2018-02-14T11:57:56.902Z,32.68
2018-02-14T12:00:24.399Z,32.30
2018-02-14T12:02:52.429Z,32.58
2018-02-14T12:05:20.028Z,32.73
2018-02-14T12:07:47.541Z,32.96
2018-02-14T12:10:15.157Z,33.17
2018-02-14T12:12:42.670Z,34.01
2018-02-14T12:15:10.318Z,33.92
2018-02-14T12:17:37.858Z,33.25
2018-02-14T12:20:05.456Z,33.53
2018-02-14T12:22:32.984Z,33.00
2018-02-14T12:25:00.510Z,32.74
2018-02-14T12:27:28.100Z,31.77
2018-02-14T12:29:55.617Z,32.03
2018-02-14T12:32:23.144Z,31.19
2018-02-14T12:34:50.788Z,30.77
2018-02-14T12:37:18.359Z,29.73
2018-02-14T12:39:47.157Z,28.73
2018-02-14T12:42:15.799Z,28.56
2018-02-14T12:44:43.281Z,28.51
2018-02-14T12:47:10.814Z,28.11
2018-02-14T12:49:38.373Z,27.34
2018-02-14T12:52:05.913Z,27.73
2018-02-14T12:54:33.425Z,26.64
2018-02-14T12:57:00.927Z,27.49
2018-02-14T12:59:28.590Z,27.65
2018-02-14T13:01:56.083Z,26.77
2018-02-14T13:04:23.625Z,25.98
2018-02-14T13:06:51.158Z,26.85
2018-02-14T13:09:18.690Z,26.79
2018-02-14T13:11:46.182Z,27.35
2018-02-14T13:14:13.649Z,27.25
2018-02-14T13:16:41.168Z,28.21
2018-02-14T13:19:08.684Z,29.18
2018-02-14T13:21:36.456Z,29.03
2018-02-14T13:24:03.952Z,28.67
2018-02-14T13:26:31.464Z,27.84
2018-02-14T13:28:59.846Z,27.18
2018-02-14T13:31:27.482Z,27.99
2018-02-14T13:33:54.966Z,28.75
2018-02-14T13:36:23.354Z,27.83
2018-02-14T13:38:50.925Z,27.39
2018-02-14T13:41:18.516Z,26.95
2018-02-14T13:43:46.073Z,26.53
2018-02-14T13:46:13.656Z,25.69
2018-02-14T13:48:41.376Z,25.55
2018-02-14T13:51:09.009Z,26.29
2018-02-14T13:53:36.494Z,26.38
2018-02-14T13:56:04.004Z,25.96
2018-02-14T13:58:32.094Z,26.43
2018-02-14T14:00:59.579Z,26.84
2018-02-14T14:03:27.181Z,27.91
2018-02-14T14:05:54.787Z,27.20
2018-02-14T14:08:22.611Z,26.88
2018-02-14T14:10:50.194Z,26.62
2018-02-14T14:13:17.700Z,26.37
2018-02-14T14:15:45.303Z,27.50
2018-02-14T14:18:13.087Z,28.67
2018-02-14T14:20:40.720Z,30.15
2018-02-14T14:23:08.373Z,31.62
2018-02-14T14:25:35.890Z,31.72
2018-02-14T14:28:03.404Z,32.83
2018-02-14T14:30:31.205Z,33.63
2018-02-14T14:32:58.732Z,34.75
2018-02-14T14:35:26.266Z,35.97
2018-02-14T14:37:53.868Z,36.88
2018-02-14T14:40:21.687Z,38.59
2018-02-14T14:42:49.178Z,39.24
2018-02-14T14:45:16.838Z,39.67
2018-02-14T14:47:44.362Z,40.26
2018-02-14T14:50:11.950Z,40.22
2018-02-14T14:52:39.466Z,40.82
2018-02-14T14:55:07.013Z,39.94
2018-02-14T14:57:34.535Z,40.79
2018-02-14T15:00:02.068Z,42.08
2018-02-14T15:02:29.617Z,43.46
2018-02-14T15:04:57.108Z,43.89
2018-02-14T15:07:32.020Z,44.08
2018-02-14T15:09:59.930Z,44.26
2018-02-14T15:12:27.454Z,43.89
2018-02-14T15:14:55.012Z,43.74
2018-02-14T15:17:22.491Z,43.52
2018-02-14T15:19:49.979Z,43.62
2018-02-14T15:22:17.503Z,44.31
2018-02-14T15:24:45.202Z,44.05
2018-02-14T15:27:12.932Z,44.42
2018-02-14T15:29:40.489Z,45.04
2018-02-14T15:32:08.127Z,45.28
2018-02-14T15:34:35.726Z,45.37
2018-02-14T15:37:03.236Z,45.41
2018-02-14T15:39:30.835Z,45.41
2018-02-14T15:41:58.547Z,45.66
2018-02-14T15:44:26.151Z,46.05
2018-02-14T15:46:53.776Z,45.72
2018-02-14T15:49:21.295Z,46.19
2018-02-14T15:51:48.769Z,46.73
2018-02-14T15:54:16.451Z,46.54
2018-02-14T15:56:44.221Z,47.10
2018-02-14T15:59:11.860Z,47.06
2018-02-14T16:01:39.438Z,47.22
2018-02-14T16:04:06.988Z,47.21
2018-02-14T16:06:34.557Z,47.23
2018-02-14T16:09:03.671Z,47.17
2018-02-14T16:11:31.245Z,47.33
2018-02-14T16:13:58.931Z,47.28
2018-02-14T16:16:26.755Z,47.51
2018-02-14T16:18:54.275Z,47.97
2018-02-14T16:21:21.749Z,48.07
2018-02-14T16:23:49.242Z,47.98
2018-02-14T16:26:16.745Z,48.12
2018-02-14T16:28:44.185Z,48.23
2018-02-14T16:31:11.709Z,48.30
2018-02-14T16:33:39.142Z,49.08
2018-02-14T16:36:06.615Z,48.50
2018-02-14T16:38:34.115Z,48.51
2018-02-14T16:41:01.630Z,48.33
2018-02-14T16:43:29.092Z,48.59
2018-02-14T16:45:56.728Z,48.58
2018-02-14T16:48:24.219Z,48.66
2018-02-14T16:50:51.739Z,48.65
2018-02-14T16:53:20.004Z,48.85
2018-02-14T16:55:51.340Z,48.60
2018-02-14T16:58:24.781Z,49.03
2018-02-14T17:00:52.289Z,49.43
2018-02-14T17:03:19.787Z,49.14
2018-02-14T17:05:47.676Z,49.17
2018-02-14T17:08:15.259Z,48.99
2018-02-14T17:10:43.030Z,49.14
2018-02-14T17:13:10.641Z,49.13
2018-02-14T17:15:38.217Z,49.55
2018-02-14T17:18:06.123Z,49.40
2018-02-14T17:20:33.805Z,49.59
2018-02-14T17:23:01.552Z,50.32
2018-02-14T17:25:29.099Z,50.20
2018-02-14T17:27:56.585Z,50.16
2018-02-14T17:30:24.243Z,49.84
2018-02-14T17:32:51.737Z,49.92
2018-02-14T17:35:19.348Z,50.21
2018-02-14T17:37:47.751Z,50.74
2018-02-14T17:40:15.229Z,51.19
2018-02-14T17:42:42.689Z,51.01
2018-02-14T17:45:10.247Z,51.26
2018-02-14T17:47:37.773Z,51.41
2018-02-14T17:50:05.459Z,51.27
2018-02-14T17:52:33.103Z,51.28
2018-02-14T17:55:00.831Z,51.38
2018-02-14T17:57:28.427Z,51.37
2018-02-14T17:59:55.932Z,51.26
2018-02-14T18:02:23.533Z,51.20
2018-02-14T18:04:51.236Z,51.05
2018-02-14T18:07:18.883Z,51.33
2018-02-14T18:09:46.713Z,51.33
2018-02-14T18:12:14.227Z,51.66
2018-02-14T18:14:41.871Z,51.75
2018-02-14T18:17:09.439Z,52.00
2018-02-14T18:19:38.650Z,51.79
2018-02-14T18:22:06.187Z,52.12
2018-02-14T18:24:34.088Z,52.07
2018-02-14T18:27:01.638Z,52.50
2018-02-14T18:29:29.241Z,52.76
2018-02-14T18:31:56.778Z,52.95
2018-02-14T18:34:24.441Z,52.58
2018-02-14T18:36:52.061Z,52.62
2018-02-14T18:39:19.618Z,52.88
2018-02-14T18:41:47.173Z,52.84
2018-02-14T18:44:14.727Z,53.17
2018-02-14T18:46:42.218Z,53.09
2018-02-14T18:49:10.594Z,53.18
2018-02-14T18:51:38.254Z,53.14
2018-02-14T18:54:06.308Z,53.33
2018-02-14T18:56:33.785Z,53.53
2018-02-14T18:59:01.263Z,53.45
2018-02-14T19:01:28.814Z,53.46
2018-02-14T19:03:56.420Z,53.67
2018-02-14T19:06:24.031Z,53.71
2018-02-14T19:08:51.798Z,53.94
2018-02-14T19:11:19.360Z,53.81
2018-02-14T19:13:47.007Z,54.04
2018-02-14T19:16:14.842Z,53.99
2018-02-14T19:18:44.810Z,54.16
2018-02-14T19:21:13.552Z,54.12
2018-02-14T19:23:41.104Z,54.37
2018-02-14T19:26:08.667Z,54.34
2018-02-14T19:28:42.654Z,54.53
2018-02-14T19:31:10.200Z,54.49
2018-02-14T19:33:37.730Z,54.26
2018-02-14T19:36:05.294Z,54.77
2018-02-14T19:38:33.038Z,54.57
2018-02-14T19:41:00.592Z,54.84
2018-02-14T19:43:28.238Z,54.83
2018-02-14T19:45:55.800Z,54.94
2018-02-14T19:48:23.428Z,54.97
2018-02-14T19:50:51.010Z,54.87
2018-02-14T19:53:18.750Z,55.30
2018-02-14T19:55:46.236Z,55.43
2018-02-14T19:58:13.921Z,55.44
2018-02-14T20:00:41.398Z,55.46
2018-02-14T20:03:08.927Z,55.63
2018-02-14T20:05:36.472Z,55.46
2018-02-14T20:08:04.036Z,55.59
2018-02-14T20:10:31.780Z,55.70
2018-02-14T20:12:59.387Z,55.75
2018-02-14T20:15:27.228Z,55.65
2018-02-14T20:17:54.698Z,55.79
2018-02-14T20:20:22.346Z,55.77
2018-02-14T20:22:50.744Z,55.68
2018-02-14T20:25:18.314Z,55.96
2018-02-14T20:27:46.021Z,55.68
2018-02-14T20:30:13.740Z,55.52
2018-02-14T20:32:41.292Z,55.37
2018-02-14T20:35:08.852Z,55.37
2018-02-14T20:37:36.355Z,55.61
2018-02-14T20:40:03.892Z,55.63
2018-02-14T20:42:31.394Z,55.56
2018-02-14T20:44:58.963Z,55.65
2018-02-14T20:47:26.448Z,55.58
2018-02-14T20:49:53.982Z,55.74
2018-02-14T20:52:21.477Z,55.51
2018-02-14T20:54:50.074Z,55.48
2018-02-14T20:57:17.545Z,55.98
2018-02-14T20:59:45.104Z,55.99
2018-02-14T21:02:12.589Z,56.13
2018-02-14T21:04:40.172Z,56.52
2018-02-14T21:07:07.750Z,56.32
2018-02-14T21:09:36.855Z,56.61
2018-02-14T21:12:04.380Z,56.46
2018-02-14T21:14:31.922Z,56.88
2018-02-14T21:16:59.481Z,56.86
2018-02-14T21:19:27.196Z,57.02
2018-02-14T21:21:54.939Z,57.09
2018-02-14T21:24:22.398Z,57.45
2018-02-14T21:26:50.296Z,57.69
2018-02-14T21:29:18.136Z,57.55
2018-02-14T21:31:45.684Z,57.63
2018-02-14T21:34:13.143Z,57.82
2018-02-14T21:36:40.900Z,58.06
2018-02-14T21:39:08.402Z,58.30
2018-02-14T21:41:36.710Z,58.08
2018-02-14T21:44:04.222Z,58.22
2018-02-14T21:46:31.787Z,58.34
2018-02-14T21:48:59.304Z,58.30
2018-02-14T21:51:26.981Z,58.56
2018-02-14T21:53:54.512Z,58.55
2018-02-14T21:56:27.200Z,58.61
2018-02-14T21:58:54.776Z,58.90
2018-02-14T22:01:22.358Z,58.71
2018-02-14T22:03:49.968Z,58.45
2018-02-14T22:06:17.452Z,58.44
2018-02-14T22:08:44.943Z,58.61
2018-02-14T22:11:12.518Z,58.62
2018-02-14T22:13:40.121Z,58.92
2018-02-14T22:16:07.612Z,59.04
2018-02-14T22:18:35.169Z,59.10
2018-02-14T22:21:02.737Z,59.28
2018-02-14T22:23:30.292Z,59.86
2018-02-14T22:25:57.816Z,60.36
2018-02-14T22:28:25.489Z,58.81
2018-02-14T22:30:53.080Z,58.29
2018-02-14T22:33:20.586Z,58.71
2018-02-14T22:35:48.096Z,59.03
2018-02-14T22:38:16.723Z,59.09
2018-02-14T22:40:44.478Z,59.54
2018-02-14T22:43:12.107Z,59.59
2018-02-14T22:45:39.639Z,59.54
2018-02-14T22:48:07.419Z,59.39
2018-02-14T22:50:34.978Z,59.52
2018-02-14T22:53:02.500Z,59.77
2018-02-14T22:55:30.012Z,59.96
2018-02-14T22:57:57.519Z,60.08
2018-02-14T23:00:25.100Z,60.21
2018-02-14T23:02:52.642Z,60.42
2018-02-14T23:05:21.327Z,60.27
2018-02-14T23:07:49.705Z,60.13
2018-02-14T23:10:18.131Z,59.86
2018-02-14T23:12:45.719Z,60.15
2018-02-14T23:15:13.246Z,60.29
2018-02-14T23:17:40.793Z,60.05
2018-02-14T23:20:08.376Z,60.35
2018-02-14T23:22:36.079Z,60.83
2018-02-14T23:25:03.531Z,60.86
2018-02-14T23:27:31.055Z,60.90
2018-02-14T23:29:58.580Z,60.76
2018-02-14T23:32:26.131Z,60.86
2018-02-14T23:34:53.625Z,60.70
2018-02-14T23:37:21.121Z,60.42
2018-02-14T23:39:48.581Z,60.40
2018-02-14T23:42:16.031Z,60.38
2018-02-14T23:44:43.645Z,60.61
2018-02-14T23:47:11.075Z,60.24
2018-02-14T23:49:38.772Z,60.76
2018-02-14T23:52:06.307Z,60.64
2018-02-14T23:54:33.885Z,60.36
2018-02-14T23:57:01.344Z,60.05
2018-02-14T23:59:28.785Z,59.91
